Time;durP1;ratioP1;P1;durP2;ratioP2;P2;SDS_P1;SDS_P2;PMS_P1;PMS_P2;Temp;Humidity;BMP_temperature;BMP_pressure;BME280_temperature;BME280_humidity;BME280_pressure;Samples;Min_cycle;Max_cycle;Signal;HPM_P1;HPM_P2
2022/10/21 00:00:18;;;;;;;5.37;1.80;;;;;;;4.70;71.85;148843.27;1642362;86;21555;-65
2022/10/21 00:02:45;;;;;;;3.55;1.80;;;;;;;4.67;71.46;148835.53;1642584;86;21017;-67
2022/10/21 00:05:14;;;;;;;7.75;1.50;;;;;;;4.59;71.22;148816.14;1672153;85;21523;-65
2022/10/21 00:07:41;;;;;;;3.40;1.60;;;;;;;4.51;71.53;148795.50;1633039;86;21524;-67
2022/10/21 00:10:09;;;;;;;3.52;1.42;;;;;;;4.47;71.77;148786.44;1646438;86;21052;-66
2022/10/21 00:12:36;;;;;;;2.75;1.47;;;;;;;4.45;71.93;148781.27;1666868;85;21678;-65
2022/10/21 00:15:07;;;;;;;2.60;1.47;;;;;;;4.48;71.97;148789.02;1665721;84;21561;-66
2022/10/21 00:17:40;;;;;;;3.60;1.50;;;;;;;4.47;72.01;148785.17;1670371;85;21119;-66
2022/10/21 00:20:09;;;;;;;2.95;1.45;;;;;;;4.48;72.05;148787.75;1681335;85;21053;-66
2022/10/21 00:22:36;;;;;;;1.80;1.30;;;;;;;4.46;72.17;148783.84;1676325;85;21125;-66
2022/10/21 00:25:04;;;;;;;2.27;1.30;;;;;;;4.45;72.13;148781.27;1661053;85;21552;-66
2022/10/21 00:27:31;;;;;;;2.35;1.30;;;;;;;4.44;72.21;148778.69;1637437;86;21078;-64
2022/10/21 00:29:59;;;;;;;2.70;1.30;;;;;;;4.43;72.32;148776.11;1655808;86;21864;-65
2022/10/21 00:32:26;;;;;;;2.83;1.30;;;;;;;4.44;72.48;148778.69;1664391;85;21062;-65
2022/10/21 00:34:53;;;;;;;7.45;1.60;;;;;;;4.44;72.48;148778.69;1667401;85;21083;-66
2022/10/21 00:37:20;;;;;;;2.37;1.25;;;;;;;4.43;72.47;148776.11;1663695;85;21000;-63
2022/10/21 00:39:51;;;;;;;2.50;1.20;;;;;;;4.41;72.56;148770.94;1660265;85;21053;-63
2022/10/21 00:42:22;;;;;;;3.87;1.42;;;;;;;4.40;72.66;148768.38;1661486;84;21209;-63
2022/10/21 00:45:12;;;;;;;2.83;1.27;;;;;;;4.40;72.75;148768.38;1661029;85;21108;-63
2022/10/21 00:47:45;;;;;;;1.85;1.10;;;;;;;4.37;72.93;148760.62;1707020;84;21461;-63
2022/10/21 00:50:39;;;;;;;2.22;1.17;;;;;;;4.34;73.01;148752.87;1707164;84;21064;-63
2022/10/21 00:53:08;;;;;;;2.40;1.47;;;;;;;4.33;73.10;148751.56;1660921;86;21130;-63
2022/10/21 00:55:38;;;;;;;2.35;1.27;;;;;;;4.27;73.31;148737.34;1667774;85;21235;-63
2022/10/21 00:58:05;;;;;;;4.25;1.20;;;;;;;4.26;73.54;148734.77;1663526;85;21485;-63
2022/10/21 01:00:32;;;;;;;3.12;1.30;;;;;;;4.26;73.73;148733.50;1658321;86;21315;-64
2022/10/21 01:03:00;;;;;;;2.75;1.20;;;;;;;4.26;73.71;148734.77;1658447;86;21077;-63
2022/10/21 01:05:27;;;;;;;2.55;1.45;;;;;;;4.26;73.71;148733.50;1658435;86;21335;-63
2022/10/21 01:07:54;;;;;;;3.40;1.57;;;;;;;4.25;73.77;148732.19;1660788;86;21883;-63
2022/10/21 01:10:21;;;;;;;5.70;1.40;;;;;;;4.26;73.86;148734.77;1662066;86;21093;-63
2022/10/21 01:13:04;;;;;;;3.58;1.42;;;;;;;4.26;74.02;148734.77;1662507;86;21074;-64
2022/10/21 01:15:40;;;;;;;1.90;1.35;;;;;;;4.27;74.18;148737.34;1662695;86;21111;-62
2022/10/21 01:18:35;;;;;;;2.25;1.37;;;;;;;4.27;74.19;148737.34;1662059;86;21337;-62
2022/10/21 01:21:26;;;;;;;3.52;1.72;;;;;;;4.29;74.07;148742.50;1662310;86;22194;-63
2022/10/21 01:24:34;;;;;;;2.37;1.40;;;;;;;4.27;74.06;148736.08;1662738;85;21031;-63
2022/10/21 01:27:20;;;;;;;6.10;1.80;;;;;;;4.23;74.20;148727.03;1661578;86;21783;-62
2022/10/21 01:30:13;;;;;;;4.47;1.67;;;;;;;4.22;74.32;148723.17;1640547;86;21162;-63
2022/10/21 01:33:02;;;;;;;2.77;1.45;;;;;;;4.21;74.48;148721.86;1666299;85;21171;-63
2022/10/21 01:35:50;;;;;;;3.58;1.47;;;;;;;4.24;74.60;148729.61;1658868;85;21270;-63
2022/10/21 01:38:25;;;;;;;2.50;1.27;;;;;;;4.24;74.60;148729.61;1662300;84;21063;-64
2022/10/21 01:41:09;;;;;;;2.35;1.30;;;;;;;4.27;74.80;148736.08;1662571;84;21049;-63
2022/10/21 01:43:51;;;;;;;2.33;1.40;;;;;;;4.30;74.92;148745.09;1662471;84;21061;-63
2022/10/21 01:46:41;;;;;;;4.83;1.50;;;;;;;4.34;74.88;148754.14;1663199;84;21083;-63
2022/10/21 01:49:23;;;;;;;11.95;1.80;;;;;;;4.36;74.91;148758.05;1663287;84;21862;-63
2022/10/21 01:51:50;;;;;;;2.67;1.90;;;;;;;4.39;74.91;148765.78;1663028;84;21489;-63
2022/10/21 01:54:25;;;;;;;2.77;1.50;;;;;;;4.43;74.86;148776.11;1663125;84;21067;-63
2022/10/21 01:56:52;;;;;;;11.93;1.47;;;;;;;4.47;74.81;148785.17;1663021;84;21059;-63
2022/10/21 01:59:19;;;;;;;2.85;1.22;;;;;;;4.48;74.72;148789.02;1662915;84;21031;-63
2022/10/21 02:01:46;;;;;;;3.20;1.47;;;;;;;4.49;74.70;148791.59;1662924;84;21225;-63
2022/10/21 02:04:12;;;;;;;3.92;1.67;;;;;;;4.51;74.66;148796.75;1684066;83;21107;-63
2022/10/21 02:06:39;;;;;;;4.53;1.47;;;;;;;4.53;74.74;148801.97;1689617;83;21064;-63
2022/10/21 02:09:06;;;;;;;4.90;1.75;;;;;;;4.56;74.79;148808.41;1685621;84;21079;-63
2022/10/21 02:11:34;;;;;;;7.22;1.72;;;;;;;4.58;74.86;148813.56;1665393;84;21068;-63
2022/10/21 02:14:12;;;;;;;3.27;1.70;;;;;;;4.59;74.97;148816.14;1663074;84;21262;-63
2022/10/21 02:16:40;;;;;;;3.27;1.37;;;;;;;4.60;74.99;148818.72;1662607;84;21071;-63
2022/10/21 02:19:16;;;;;;;3.62;1.62;;;;;;;4.58;74.93;148814.88;1662882;84;21055;-63
2022/10/21 02:21:46;;;;;;;3.85;1.52;;;;;;;4.65;74.87;148831.67;1663152;84;20983;-62
2022/10/21 02:24:21;;;;;;;3.22;1.55;;;;;;;4.69;74.89;148842.00;1663277;84;21414;-63
2022/10/21 02:26:48;;;;;;;5.67;1.55;;;;;;;4.73;74.90;148851.02;1672233;84;21474;-65
2022/10/21 02:29:15;;;;;;;5.62;1.75;;;;;;;4.76;74.84;148857.50;1681071;83;21040;-66
2022/10/21 02:32:04;;;;;;;2.83;1.50;;;;;;;4.79;74.45;148866.56;1680921;84;21096;-67
2022/10/21 02:34:51;;;;;;;2.90;1.40;;;;;;;4.79;74.45;148866.56;1656017;84;21027;-66
2022/10/21 02:37:32;;;;;;;3.17;1.60;;;;;;;4.80;74.18;148869.12;1674140;84;21181;-67
2022/10/21 02:40:05;;;;;;;6.67;2.45;;;;;;;4.81;74.06;148871.72;1669925;84;21513;-65
2022/10/21 02:42:35;;;;;;;8.80;2.62;;;;;;;4.82;73.96;148874.30;1634722;86;21086;-66
2022/10/21 02:45:03;;;;;;;12.55;2.30;;;;;;;4.83;73.84;148875.56;1633087;87;21093;-67
2022/10/21 02:47:29;;;;;;;4.35;2.27;;;;;;;4.83;73.82;148876.88;1672683;84;21469;-67
2022/10/21 02:49:56;;;;;;;5.80;2.50;;;;;;;4.85;73.83;148882.05;1679805;84;21100;-67
2022/10/21 02:52:23;;;;;;;4.83;1.52;;;;;;;4.89;73.81;148891.09;1689170;84;21184;-65
2022/10/21 02:54:49;;;;;;;3.27;1.80;;;;;;;4.92;73.80;148898.84;1680344;84;21466;-66
2022/10/21 02:57:16;;;;;;;2.87;1.52;;;;;;;4.96;73.83;148907.86;1642690;86;21105;-66
2022/10/21 02:59:43;;;;;;;3.33;1.62;;;;;;;4.98;73.79;148914.34;1634107;87;21162;-66
2022/10/21 03:02:10;;;;;;;2.75;1.30;;;;;;;5.02;73.69;148923.41;1667334;86;21159;-66
2022/10/21 03:04:38;;;;;;;3.72;1.60;;;;;;;5.03;73.40;148925.98;1639356;86;21569;-65
2022/10/21 03:07:05;;;;;;;3.25;1.42;;;;;;;5.06;73.12;148932.41;1639561;86;21080;-65
2022/10/21 03:09:32;;;;;;;2.72;1.60;;;;;;;5.06;72.98;148933.73;1692757;83;21162;-66
2022/10/21 03:12:00;;;;;;;4.08;1.30;;;;;;;5.06;72.93;148933.73;1675388;84;21008;-65
2022/10/21 03:14:27;;;;;;;7.72;1.82;;;;;;;5.08;72.98;148938.91;1670914;85;21169;-66
2022/10/21 03:16:54;;;;;;;2.50;1.32;;;;;;;5.09;72.94;148941.47;1665587;86;21630;-66
2022/10/21 03:19:20;;;;;;;11.60;1.57;;;;;;;5.10;73.00;148944.06;1677602;84;21075;-66
2022/10/21 03:21:49;;;;;;;5.30;1.60;;;;;;;5.12;72.95;148949.22;1674326;84;21135;-66
2022/10/21 03:24:16;;;;;;;12.40;2.52;;;;;;;5.16;72.98;148958.28;1683860;84;21103;-66
2022/10/21 03:26:43;;;;;;;12.58;1.70;;;;;;;5.18;72.91;148962.14;1676017;84;21062;-66
2022/10/21 03:29:10;;;;;;;5.97;1.95;;;;;;;5.20;72.96;148967.34;1695398;84;21224;-66
2022/10/21 03:31:37;;;;;;;8.10;1.80;;;;;;;5.20;72.99;148968.62;1687090;84;21116;-66
2022/10/21 03:34:04;;;;;;;5.87;2.05;;;;;;;5.23;72.91;148975.09;1662075;85;21039;-66
2022/10/21 03:36:31;;;;;;;3.12;1.50;;;;;;;5.25;72.88;148980.27;1662953;85;21683;-66
2022/10/21 03:38:57;;;;;;;8.15;1.90;;;;;;;5.26;72.78;148982.84;1673742;84;21020;-66
2022/10/21 03:41:24;;;;;;;17.77;1.80;;;;;;;5.26;72.70;148982.84;1629036;86;21151;-66
2022/10/21 03:43:51;;;;;;;5.25;1.65;;;;;;;5.27;72.68;148985.44;1686082;84;21123;-66
2022/10/21 03:46:19;;;;;;;4.70;2.12;;;;;;;5.29;72.70;148990.59;1667424;84;21076;-66
2022/10/21 03:48:46;;;;;;;9.63;1.77;;;;;;;5.33;72.65;149000.92;1678510;84;21055;-66
2022/10/21 03:51:13;;;;;;;4.28;1.77;;;;;;;5.35;72.64;149006.09;1653754;85;21107;-66
2022/10/21 03:53:40;;;;;;;8.23;1.75;;;;;;;5.38;72.66;149012.58;1688918;84;21308;-66
2022/10/21 03:56:08;;;;;;;6.87;1.87;;;;;;;5.39;72.67;149015.16;1654093;85;21096;-66
2022/10/21 03:58:35;;;;;;;3.27;1.80;;;;;;;5.40;72.61;149019.00;1673692;84;21012;-65
2022/10/21 04:01:03;;;;;;;2.33;1.40;;;;;;;5.41;72.57;149021.59;1665930;84;21033;-65
2022/10/21 04:03:30;;;;;;;4.10;1.82;;;;;;;5.41;72.53;149021.59;1664490;84;21088;-66
2022/10/21 04:06:18;;;;;;;4.35;1.80;;;;;;;5.45;72.46;149031.97;1674288;84;21157;-65
2022/10/21 04:08:53;;;;;;;6.15;1.98;;;;;;;5.45;72.44;149031.97;1660056;84;21457;-65
2022/10/21 04:11:22;;;;;;;4.42;1.80;;;;;;;5.47;72.39;149035.81;1672218;84;21044;-65
2022/10/21 04:13:52;;;;;;;5.22;1.80;;;;;;;5.49;72.35;149039.72;1641284;86;21157;-65
2022/10/21 04:16:19;;;;;;;4.80;1.92;;;;;;;5.51;72.40;149044.89;1685332;84;21055;-65
2022/10/21 04:18:47;;;;;;;6.08;1.67;;;;;;;5.51;72.42;149044.89;1632646;87;22075;-67
2022/10/21 04:21:15;;;;;;;6.65;2.25;;;;;;;5.51;72.48;149046.16;1626915;87;21076;-66
2022/10/21 04:23:42;;;;;;;6.58;2.30;;;;;;;5.52;72.55;149047.47;1661122;84;21062;-65
2022/10/21 04:26:10;;;;;;;5.53;1.95;;;;;;;5.52;72.66;149047.47;1673423;85;21093;-66
2022/10/21 04:28:38;;;;;;;10.25;2.12;;;;;;;5.54;72.77;149052.64;1625951;87;21056;-66
2022/10/21 04:31:04;;;;;;;4.55;2.08;;;;;;;5.54;72.81;149052.64;1661218;84;21239;-66
2022/10/21 04:33:31;;;;;;;4.47;2.12;;;;;;;5.55;72.94;149055.22;1634161;86;21085;-66
2022/10/21 04:35:59;;;;;;;6.55;2.70;;;;;;;5.55;73.12;149056.53;1666952;84;21617;-65
2022/10/21 04:38:26;;;;;;;8.43;2.20;;;;;;;5.58;73.26;149062.97;1683113;84;21028;-66
2022/10/21 04:41:00;;;;;;;8.80;2.62;;;;;;;5.60;73.38;149068.13;1674238;84;21629;-66
2022/10/21 04:43:28;;;;;;;4.92;2.30;;;;;;;5.62;73.52;149073.31;1687236;84;21243;-66
2022/10/21 04:45:55;;;;;;;5.35;2.22;;;;;;;5.62;73.62;149073.31;1672221;84;21076;-65
2022/10/21 04:48:22;;;;;;;12.80;2.90;;;;;;;5.64;73.91;149077.20;1652341;86;21088;-66
2022/10/21 04:50:50;;;;;;;5.50;2.60;;;;;;;5.64;74.02;149077.20;1689090;84;20988;-66
2022/10/21 04:53:23;;;;;;;7.67;2.67;;;;;;;5.64;74.16;149078.52;1661291;84;21059;-66
2022/10/21 04:55:52;;;;;;;6.65;3.45;;;;;;;5.64;74.36;149077.20;1681998;83;21875;-65
2022/10/21 04:58:19;;;;;;;14.15;5.45;;;;;;;5.76;74.72;149106.94;1635937;87;21071;-66
2022/10/21 05:00:46;;;;;;;14.38;5.25;;;;;;;5.94;74.69;149152.17;1657316;85;21110;-66
2022/10/21 05:03:14;;;;;;;12.68;4.70;;;;;;;6.08;74.26;149187.14;1664295;85;21055;-66
2022/10/21 05:05:40;;;;;;;11.97;3.85;;;;;;;6.13;74.03;149200.11;1664699;84;21135;-66
2022/10/21 05:08:09;;;;;;;9.28;3.52;;;;;;;6.22;74.02;149222.09;1673445;85;20964;-66
2022/10/21 05:10:36;;;;;;;6.47;2.75;;;;;;;6.35;73.89;149254.44;1626336;87;21214;-66
2022/10/21 05:13:02;;;;;;;7.22;3.00;;;;;;;6.48;73.38;149288.03;1661498;85;21061;-65
2022/10/21 05:15:32;;;;;;;11.20;4.37;;;;;;;6.59;73.01;149316.53;1671842;84;21072;-65
2022/10/21 05:18:00;;;;;;;11.45;4.90;;;;;;;6.72;72.47;149347.55;1648193;86;21051;-66
2022/10/21 05:20:28;;;;;;;13.03;5.12;;;;;;;6.87;72.16;149386.37;1671540;84;21552;-67
2022/10/21 05:22:56;;;;;;;15.78;6.22;;;;;;;7.02;71.55;149422.64;1665196;84;21012;-65
2022/10/21 05:25:23;;;;;;;20.95;5.83;;;;;;;7.11;70.97;149444.64;1666962;85;21259;-65
2022/10/21 05:27:50;;;;;;;10.58;4.60;;;;;;;7.13;70.65;149451.09;1672690;85;21064;-66
2022/10/21 05:30:17;;;;;;;11.95;4.30;;;;;;;7.19;70.55;149464.06;1664607;85;21501;-66
2022/10/21 05:32:44;;;;;;;8.38;4.17;;;;;;;7.25;70.51;149480.86;1670917;84;21236;-64
2022/10/21 05:35:11;;;;;;;10.40;4.53;;;;;;;7.31;70.55;149495.11;1655991;85;21085;-63
2022/10/21 05:37:38;;;;;;;14.68;4.50;;;;;;;7.35;70.29;149505.45;1634562;87;21116;-63
2022/10/21 05:40:06;;;;;;;9.58;4.20;;;;;;;7.41;70.29;149521.03;1626421;87;21018;-62
2022/10/21 05:42:34;;;;;;;12.40;4.75;;;;;;;7.50;70.15;149542.98;1661180;84;21537;-63
2022/10/21 05:45:00;;;;;;;7.87;3.80;;;;;;;7.52;69.85;149546.91;1663428;85;21326;-62
2022/10/21 05:47:29;;;;;;;8.05;3.47;;;;;;;7.52;69.81;149548.22;1656565;85;21088;-63
2022/10/21 05:49:58;;;;;;;11.97;3.33;;;;;;;7.53;69.67;149550.80;1673009;85;21111;-64
2022/10/21 05:52:28;;;;;;;11.00;4.65;;;;;;;7.54;69.67;149552.06;1667000;84;21082;-63
2022/10/21 05:54:54;;;;;;;11.33;4.70;;;;;;;7.56;69.61;149557.25;1672553;85;21615;-63
2022/10/21 05:57:21;;;;;;;9.50;4.22;;;;;;;7.56;69.73;149557.25;1662988;85;21852;-63
2022/10/21 05:59:48;;;;;;;7.45;3.10;;;;;;;7.61;69.76;149570.19;1625175;87;21076;-63
2022/10/21 06:02:14;;;;;;;9.43;3.08;;;;;;;7.65;69.73;149580.58;1670853;84;21076;-63
2022/10/21 06:04:41;;;;;;;6.95;2.37;;;;;;;7.68;69.07;149587.03;1666807;84;21071;-66
2022/10/21 06:07:08;;;;;;;7.62;3.52;;;;;;;7.67;68.86;149585.75;1677211;84;21120;-66
2022/10/21 06:09:36;;;;;;;7.55;3.45;;;;;;;7.66;68.93;149583.17;1674744;85;21916;-65
2022/10/21 06:12:05;;;;;;;7.72;3.60;;;;;;;7.65;68.77;149580.58;1674812;83;21009;-67
2022/10/21 06:14:34;;;;;;;10.23;3.30;;;;;;;7.64;68.90;149576.67;1671984;84;21059;-65
2022/10/21 06:17:05;;;;;;;11.73;4.00;;;;;;;7.66;68.82;149581.84;1665559;84;21024;-66
2022/10/21 06:19:32;;;;;;;9.88;3.52;;;;;;;7.69;68.83;149589.61;1664619;85;21101;-66
2022/10/21 06:21:59;;;;;;;6.85;3.35;;;;;;;7.72;68.84;149598.69;1676840;84;21244;-66
2022/10/21 06:24:26;;;;;;;12.33;3.65;;;;;;;7.80;68.83;149616.81;1667828;84;21510;-66
2022/10/21 06:26:55;;;;;;;11.85;3.83;;;;;;;7.87;68.79;149634.97;1677090;84;21557;-66
2022/10/21 06:29:22;;;;;;;6.65;3.70;;;;;;;7.92;68.10;149647.91;1675367;84;21043;-66
2022/10/21 06:31:49;;;;;;;6.00;2.80;;;;;;;7.93;68.04;149650.50;1668450;84;21496;-66
2022/10/21 06:34:15;;;;;;;6.80;2.83;;;;;;;7.96;67.94;149658.27;1672434;84;21470;-66
2022/10/21 06:36:42;;;;;;;6.42;2.80;;;;;;;8.02;67.77;149672.52;1676995;84;21049;-66
2022/10/21 06:39:09;;;;;;;7.55;2.95;;;;;;;8.07;67.68;149684.14;1676206;83;21335;-65
2022/10/21 06:41:38;;;;;;;8.30;3.12;;;;;;;8.08;67.66;149686.78;1648669;85;41157;-63
2022/10/21 06:44:05;;;;;;;7.03;3.12;;;;;;;8.14;67.38;149702.31;1672688;83;21519;-66
2022/10/21 06:46:32;;;;;;;6.42;2.92;;;;;;;8.16;67.27;149708.75;1675262;83;21148;-66
2022/10/21 06:48:59;;;;;;;6.15;2.90;;;;;;;8.19;67.58;149715.25;1671388;83;21107;-64
2022/10/21 06:51:28;;;;;;;15.05;4.20;;;;;;;8.30;67.48;149743.78;1675834;83;21063;-65
2022/10/21 06:53:56;;;;;;;8.40;3.20;;;;;;;8.41;67.06;149769.66;1665073;85;21128;-66
2022/10/21 06:56:24;;;;;;;6.55;2.98;;;;;;;8.49;66.43;149789.11;1671552;83;21755;-65
2022/10/21 06:58:51;;;;;;;9.78;3.00;;;;;;;8.50;66.25;149793.02;1673088;83;21249;-65
2022/10/21 07:01:26;;;;;;;14.28;4.28;;;;;;;8.54;65.93;149802.09;1672276;83;21280;-65
2022/10/21 07:03:52;;;;;;;16.97;5.78;;;;;;;8.55;65.54;149806.00;1634247;86;21117;-65
2022/10/21 07:06:19;;;;;;;10.88;3.77;;;;;;;8.59;65.49;149816.36;1634208;86;21282;-66
2022/10/21 07:08:47;;;;;;;9.03;2.95;;;;;;;8.61;65.19;149820.22;1631956;86;21150;-66
2022/10/21 07:11:13;;;;;;;7.55;3.08;;;;;;;8.62;64.95;149822.86;1634760;86;21163;-65
2022/10/21 07:13:40;;;;;;;6.78;3.10;;;;;;;8.64;64.97;149826.72;1635498;86;21027;-66
2022/10/21 07:16:20;;;;;;;13.50;3.33;;;;;;;8.67;64.86;149835.81;1627948;86;21071;-66
2022/10/21 07:18:47;;;;;;;8.73;3.00;;;;;;;8.70;64.41;149842.25;1630692;86;21098;-66
2022/10/21 07:21:17;;;;;;;8.20;2.80;;;;;;;8.72;64.52;149847.44;1634512;87;21102;-65
2022/10/21 07:23:45;;;;;;;6.22;2.65;;;;;;;8.79;64.39;149865.61;1640051;86;21894;-66
2022/10/21 07:26:14;;;;;;;6.40;2.65;;;;;;;8.87;64.12;149886.33;1629960;86;21109;-67
2022/10/21 07:28:42;;;;;;;8.85;3.55;;;;;;;8.89;63.87;149891.50;1613465;87;21079;-67
2022/10/21 07:31:09;;;;;;;9.70;2.50;;;;;;;8.92;64.13;149898.00;1639514;85;21110;-65
2022/10/21 07:33:36;;;;;;;11.88;2.65;;;;;;;8.99;63.71;149914.87;1625911;86;21089;-65
2022/10/21 07:36:09;;;;;;;10.05;2.98;;;;;;;9.02;63.37;149922.64;1581725;88;21266;-68
2022/10/21 07:38:36;;;;;;;4.35;2.37;;;;;;;9.03;63.11;149925.23;1628956;85;21075;-66
2022/10/21 07:41:03;;;;;;;5.05;2.50;;;;;;;9.07;62.96;149935.59;1635503;86;21509;-65
2022/10/21 07:43:30;;;;;;;10.48;3.10;;;;;;;9.09;62.96;149940.77;1633524;86;21059;-66
2022/10/21 07:46:14;;;;;;;8.58;3.45;;;;;;;9.14;62.70;149953.72;1636480;86;21124;-67
2022/10/21 07:51:38;;;;;;;7.05;2.10;;;;;;;9.20;62.18;149968.00;1585834;86;21079;-65
2022/10/21 07:54:13;;;;;;;6.90;2.65;;;;;;;9.22;62.06;149971.91;1644959;86;21093;-65
2022/10/21 07:56:58;;;;;;;6.60;2.67;;;;;;;9.23;62.45;149974.50;1640132;86;21106;-66
2022/10/21 07:59:25;;;;;;;6.97;2.87;;;;;;;9.29;61.98;149990.03;1586858;86;21587;-66
2022/10/21 08:01:52;;;;;;;6.22;2.50;;;;;;;9.34;61.71;150002.98;1640696;86;21247;-66
2022/10/21 08:04:23;;;;;;;7.03;2.10;;;;;;;9.41;61.58;150021.17;1648998;85;21063;-66
2022/10/21 08:06:50;;;;;;;8.70;3.02;;;;;;;9.47;61.25;150035.41;1641110;86;21063;-67
2022/10/21 08:09:18;;;;;;;8.58;3.17;;;;;;;9.48;61.02;150036.72;1642852;86;21101;-66
2022/10/21 08:11:44;;;;;;;15.00;4.17;;;;;;;9.51;61.04;150044.48;1642833;86;21485;-67
2022/10/21 08:14:11;;;;;;;14.95;4.35;;;;;;;9.55;61.05;150056.17;1639230;86;21140;-67
2022/10/21 08:16:39;;;;;;;9.88;3.58;;;;;;;9.58;60.88;150062.62;1650123;85;21150;-66
2022/10/21 08:19:06;;;;;;;8.00;2.92;;;;;;;9.63;60.61;150075.64;1636255;86;21562;-66
2022/10/21 08:21:33;;;;;;;6.00;2.58;;;;;;;9.65;60.23;150080.81;1636353;86;21150;-67
2022/10/21 08:24:01;;;;;;;8.55;2.58;;;;;;;9.69;60.30;150089.86;1638627;86;21080;-65
2022/10/21 08:26:30;;;;;;;12.03;4.22;;;;;;;9.71;60.20;150096.36;1639781;86;21565;-65
2022/10/21 08:28:56;;;;;;;6.72;2.75;;;;;;;9.75;59.93;150106.73;1648375;86;21104;-66
2022/10/21 08:31:23;;;;;;;7.80;3.55;;;;;;;9.75;59.69;150105.45;1643781;86;21123;-67
2022/10/21 08:33:50;;;;;;;5.47;2.22;;;;;;;9.75;59.72;150106.73;1650311;86;21112;-66
2022/10/21 08:36:20;;;;;;;3.58;1.80;;;;;;;9.80;59.66;150117.09;1647810;86;21112;-67
2022/10/21 08:38:47;;;;;;;12.60;4.12;;;;;;;9.86;59.24;150133.97;1649460;86;22082;-66
2022/10/21 08:41:32;;;;;;;5.60;2.58;;;;;;;9.88;59.02;150137.88;1643270;86;21107;-67
2022/10/21 08:44:07;;;;;;;9.63;3.08;;;;;;;9.94;58.89;150152.11;1639134;86;21143;-65
2022/10/21 08:46:38;;;;;;;5.58;2.08;;;;;;;9.94;58.81;150153.44;1637232;85;21079;-66
2022/10/21 08:49:28;;;;;;;5.90;2.47;;;;;;;10.00;58.72;150168.98;1648248;85;21754;-66
2022/10/21 08:52:08;;;;;;;7.78;3.25;;;;;;;10.08;58.70;150187.17;1643909;86;21558;-66
2022/10/21 08:55:00;;;;;;;10.50;4.58;;;;;;;10.13;58.18;150200.13;1648763;86;21081;-66
2022/10/21 08:57:27;;;;;;;4.47;2.10;;;;;;;10.16;58.16;150209.19;1645458;86;21105;-66
2022/10/21 08:59:55;;;;;;;2.83;1.90;;;;;;;10.20;57.74;150218.28;1643822;86;21617;-65
2022/10/21 09:02:51;;;;;;;2.62;1.95;;;;;;;10.21;57.50;150220.88;1644283;86;21108;-67
2022/10/21 09:05:38;;;;;;;3.05;1.90;;;;;;;10.27;57.19;150235.16;1638755;85;21241;-67
2022/10/21 09:08:28;;;;;;;8.13;2.52;;;;;;;10.30;56.88;150242.94;1646783;85;21087;-66
2022/10/21 09:11:04;;;;;;;3.90;1.77;;;;;;;10.28;57.02;150237.75;1626036;86;21015;-64
2022/10/21 09:14:06;;;;;;;5.47;1.95;;;;;;;10.27;56.87;150236.44;1630544;86;21191;-64
2022/10/21 09:16:46;;;;;;;4.50;1.90;;;;;;;10.30;57.15;150242.94;1667760;84;20909;-66
2022/10/21 09:19:38;;;;;;;2.37;1.57;;;;;;;10.44;57.09;150278.02;1641987;85;21159;-64
2022/10/21 09:22:24;;;;;;;3.85;1.85;;;;;;;10.51;56.62;150294.89;1662148;84;21084;-67
2022/10/21 09:25:34;;;;;;;3.55;1.80;;;;;;;10.47;56.44;150285.78;1655965;84;21117;-69
2022/10/21 09:28:10;;;;;;;3.10;1.47;;;;;;;10.46;56.31;150283.19;1665890;84;21099;-68
2022/10/21 09:30:37;;;;;;;7.15;1.70;;;;;;;10.46;56.45;150283.19;1662774;84;21080;-64
2022/10/21 09:33:08;;;;;;;6.37;1.65;;;;;;;10.53;56.67;150301.39;1646776;85;21140;-66
2022/10/21 09:35:53;;;;;;;3.12;1.70;;;;;;;10.59;56.61;150315.63;1643252;84;21093;-67
2022/10/21 09:38:34;;;;;;;2.77;1.82;;;;;;;10.65;56.54;150329.92;1660764;84;21128;-67
2022/10/21 09:41:02;;;;;;;2.85;1.90;;;;;;;10.60;56.13;150319.55;1657700;85;21095;-66
2022/10/21 09:43:33;;;;;;;3.15;2.10;;;;;;;10.56;56.22;150309.17;1659735;84;21075;-66
2022/10/21 09:46:01;;;;;;;5.50;1.90;;;;;;;10.57;56.32;150311.77;1624123;85;21126;-66
2022/10/21 09:48:51;;;;;;;3.87;2.02;;;;;;;10.62;56.25;150323.47;1617338;85;22193;-67
2022/10/21 09:51:31;;;;;;;3.25;1.60;;;;;;;10.68;56.22;150339.02;1648933;84;21004;-67
2022/10/21 09:54:08;;;;;;;6.42;2.27;;;;;;;10.75;55.90;150355.91;1656895;84;21262;-67
2022/10/21 09:56:45;;;;;;;4.60;2.00;;;;;;;10.76;55.85;150358.50;1640984;85;21135;-68
2022/10/21 09:59:20;;;;;;;6.03;2.20;;;;;;;10.78;55.96;150362.36;1643853;85;21133;-67
2022/10/21 10:01:58;;;;;;;5.70;1.90;;;;;;;10.81;56.08;150371.47;1649873;85;21086;-67
2022/10/21 10:04:31;;;;;;;8.53;2.17;;;;;;;10.87;56.06;150387.02;1647761;84;21107;-67
2022/10/21 10:07:04;;;;;;;4.42;2.17;;;;;;;10.92;55.89;150397.41;1667061;84;21561;-68
2022/10/21 10:09:33;;;;;;;2.98;2.12;;;;;;;10.95;55.63;150405.22;1648369;84;21029;-66
2022/10/21 10:12:12;;;;;;;2.80;1.87;;;;;;;10.94;55.39;150402.58;1655954;84;21241;-66
2022/10/21 10:14:42;;;;;;;4.40;1.92;;;;;;;10.95;55.44;150406.50;1662062;84;20979;-67
2022/10/21 10:17:27;;;;;;;4.40;1.82;;;;;;;10.97;55.28;150410.42;1664273;83;21183;-67
2022/10/21 10:20:17;;;;;;;5.08;1.82;;;;;;;10.96;55.34;150407.81;1658911;84;21616;-66
2022/10/21 10:23:03;;;;;;;2.35;1.70;;;;;;;11.00;55.34;150419.47;1664291;84;20977;-66
2022/10/21 10:25:33;;;;;;;8.18;2.40;;;;;;;11.02;55.19;150424.66;1667453;84;21452;-68
2022/10/21 10:28:10;;;;;;;3.15;2.00;;;;;;;11.02;55.24;150423.37;1632669;86;21817;-68
2022/10/21 10:30:53;;;;;;;2.87;1.90;;;;;;;11.10;55.41;150442.86;1659750;84;22188;-68
2022/10/21 10:33:28;;;;;;;4.92;1.95;;;;;;;11.21;55.02;150470.12;1669163;84;21067;-66
2022/10/21 10:35:59;;;;;;;2.37;1.50;;;;;;;11.30;54.47;150494.80;1678127;84;21094;-68
2022/10/21 10:38:36;;;;;;;4.80;1.92;;;;;;;11.35;54.05;150506.44;1629440;86;21235;-67
2022/10/21 10:41:07;;;;;;;3.37;2.08;;;;;;;11.35;53.91;150506.44;1661133;85;21090;-67
2022/10/21 10:43:36;;;;;;;4.85;2.10;;;;;;;11.34;53.62;150503.86;1686590;84;20995;-66
2022/10/21 10:46:06;;;;;;;2.60;1.75;;;;;;;11.33;53.90;150501.27;1655179;84;21529;-68
2022/10/21 10:48:43;;;;;;;2.77;1.62;;;;;;;11.39;53.89;150516.88;1686151;83;20946;-68
2022/10/21 10:51:34;;;;;;;4.10;1.65;;;;;;;11.40;53.35;150519.47;1672134;84;21943;-68
2022/10/21 10:54:25;;;;;;;5.92;1.62;;;;;;;11.37;53.45;150510.36;1643859;85;21036;-68
2022/10/21 10:57:01;;;;;;;3.47;1.85;;;;;;;11.35;53.40;150506.44;1677039;83;21029;-68
2022/10/21 10:59:55;;;;;;;6.40;1.70;;;;;;;11.30;53.47;150493.47;1678113;83;21016;-66
2022/10/21 11:02:51;;;;;;;2.75;1.85;;;;;;;11.22;53.64;150474.00;1675317;83;21113;-67
2022/10/21 11:05:26;;;;;;;4.40;1.90;;;;;;;11.21;53.65;150471.41;1678056;83;21137;-66
2022/10/21 11:07:59;;;;;;;4.47;1.75;;;;;;;11.21;53.77;150470.12;1650270;85;21082;-68
2022/10/21 11:10:41;;;;;;;2.10;1.60;;;;;;;11.26;54.95;150483.09;1677595;84;20986;-67
2022/10/21 11:13:16;;;;;;;4.17;2.45;;;;;;;11.32;55.93;150498.66;1677131;84;21441;-67
2022/10/21 11:16:13;;;;;;;4.35;2.20;;;;;;;11.36;56.13;150507.78;1680432;84;21638;-68
2022/10/21 11:19:03;;;;;;;3.17;2.20;;;;;;;11.38;56.29;150512.95;1670332;84;21134;-68
2022/10/21 11:21:48;;;;;;;3.35;1.77;;;;;;;11.36;56.50;150509.05;1685864;83;21323;-68
2022/10/21 11:24:38;;;;;;;4.35;1.90;;;;;;;11.36;56.78;150509.05;1683522;83;21099;-68
2022/10/21 11:27:25;;;;;;;5.42;2.02;;;;;;;11.40;56.84;150519.47;1608602;85;21083;-68
2022/10/21 11:30:03;;;;;;;4.05;2.45;;;;;;;11.41;56.76;150520.75;1671502;83;21079;-67
2022/10/21 11:33:01;;;;;;;2.50;1.90;;;;;;;11.39;56.74;150516.88;1686029;83;21817;-67
2022/10/21 11:35:56;;;;;;;3.02;1.50;;;;;;;11.38;56.73;150514.23;1672392;84;21035;-68
2022/10/21 11:38:37;;;;;;;4.80;1.80;;;;;;;11.40;56.96;150519.47;1676265;84;21075;-67
2022/10/21 11:41:36;;;;;;;4.15;2.17;;;;;;;11.39;57.43;150516.88;1671649;83;21072;-67
2022/10/21 11:44:25;;;;;;;2.22;1.57;;;;;;;11.32;57.74;150498.66;1675409;84;21123;-68
2022/10/21 11:47:19;;;;;;;5.65;1.75;;;;;;;11.29;57.90;150490.88;1677018;84;21062;-67
2022/10/21 11:50:34;;;;;;;7.70;1.80;;;;;;;11.22;58.47;150472.72;1674843;84;21107;-68
2022/10/21 11:53:43;;;;;;;3.42;1.80;;;;;;;11.14;58.73;150453.23;1655098;85;21038;-67
2022/10/21 11:57:00;;;;;;;4.00;2.20;;;;;;;11.12;58.96;150449.33;1628955;86;21090;-67
2022/10/21 11:59:59;;;;;;;4.17;2.12;;;;;;;11.13;59.20;150451.92;1626184;86;21102;-66